Time,TemperatureF,DewpointF,PressureIn,WindDirection,WindDirectionDegrees,WindSpeedMPH,WindSpeedGustMPH,Humidity,HourlyPrecipIn,Conditions,Clouds,dailyrainin,SoftwareType,DateUTC
2013-05-27 00:01:00,59.2,44.4,30.02,SSW,197,1.3,1.8,58,0.00,,,0.00,WUHU21623XXSP,2013-05-27 04:01:00,
2013-05-27 00:06:00,59.5,44.3,30.02,SSW,200,1.3,2.0,57,0.00,,,0.00,WUHU21623XXSP,2013-05-27 04:06:00,
2013-05-27 00:11:00,59.7,45.4,30.02,ESE,112,0.0,2.0,59,0.00,,,0.00,WUHU21623XXSP,2013-05-27 04:11:00,
2013-05-27 00:16:00,59.5,45.2,30.02,ESE,112,0.0,0.0,59,0.00,,,0.00,WUHU21623XXSP,2013-05-27 04:16:00,
2013-05-27 00:21:00,59.5,45.2,30.02,SE,135,0.0,0.0,59,0.00,,,0.00,WUHU21623XXSP,2013-05-27 04:21:00,
2013-05-27 00:26:00,59.4,45.0,30.02,SE,135,0.0,0.0,59,0.00,,,0.00,WUHU21623XXSP,2013-05-27 04:26:00,
2013-05-27 00:31:00,59.2,44.8,30.02,SE,135,0.0,0.0,59,0.00,,,0.00,WUHU21623XXSP,2013-05-27 04:31:00,
2013-05-27 00:36:00,58.8,44.5,30.02,SE,135,0.0,0.0,59,0.00,,,0.00,WUHU21623XXSP,2013-05-27 04:36:00,
2013-05-27 00:41:00,58.8,44.5,30.01,SE,135,0.0,0.0,59,0.00,,,0.00,WUHU21623XXSP,2013-05-27 04:41:00,
2013-05-27 00:46:00,58.8,44.5,30.01,SE,135,0.0,0.0,59,0.00,,,0.00,WUHU21623XXSP,2013-05-27 04:46:00,
2013-05-27 00:51:00,58.8,45.4,30.01,SE,135,0.0,0.0,61,0.00,,,0.00,WUHU21623XXSP,2013-05-27 04:51:00,
2013-05-27 00:56:00,58.8,45.0,30.01,SE,135,0.0,0.0,60,0.00,,,0.00,WUHU21623XXSP,2013-05-27 04:56:00,
2013-05-27 01:01:00,58.8,45.4,30.01,SE,135,0.0,0.0,61,0.00,,,0.00,WUHU21623XXSP,2013-05-27 05:01:00,
2013-05-27 01:06:00,58.6,46.0,30.01,SE,135,0.0,0.0,63,0.00,,,0.00,WUHU21623XXSP,2013-05-27 05:06:00,
2013-05-27 01:11:00,58.5,46.3,30.01,SE,135,0.0,0.0,64,0.00,,,0.00,WUHU21623XXSP,2013-05-27 05:11:00,
2013-05-27 01:16:00,58.3,46.1,30.01,SE,135,0.0,0.0,64,0.00,,,0.00,WUHU21623XXSP,2013-05-27 05:16:00,
2013-05-27 01:21:00,58.3,46.5,30.01,NNW,337,0.0,0.0,65,0.00,,,0.00,WUHU21623XXSP,2013-05-27 05:21:00,
2013-05-27 01:26:00,57.9,46.6,30.00,NNW,337,0.0,0.0,66,0.00,,,0.00,WUHU21623XXSP,2013-05-27 05:26:00,
2013-05-27 01:31:00,57.9,46.2,30.00,NNW,337,0.0,0.0,65,0.00,,,0.00,WUHU21623XXSP,2013-05-27 05:31:00,
2013-05-27 01:36:00,57.7,46.0,30.00,NNW,337,0.0,0.0,65,0.00,,,0.00,WUHU21623XXSP,2013-05-27 05:36:00,
2013-05-27 01:41:00,57.7,45.6,30.00,NNW,337,0.0,0.0,64,0.00,,,0.00,WUHU21623XXSP,2013-05-27 05:41:00,
2013-05-27 01:46:00,57.7,45.6,30.00,NNW,337,0.0,0.0,64,0.00,,,0.00,WUHU21623XXSP,2013-05-27 05:46:00,
2013-05-27 01:51:00,57.7,45.6,30.00,NNW,337,0.0,0.0,64,0.00,,,0.00,WUHU21623XXSP,2013-05-27 05:51:00,
2013-05-27 01:56:00,57.7,45.6,30.00,NNW,337,0.0,0.0,64,0.00,,,0.00,WUHU21623XXSP,2013-05-27 05:56:00,
2013-05-27 02:01:00,57.7,45.2,30.00,NNW,337,0.0,0.0,63,0.00,,,0.00,WUHU21623XXSP,2013-05-27 06:01:00,
2013-05-27 02:06:00,57.7,45.2,30.00,NNW,337,0.0,0.0,63,0.00,,,0.00,WUHU21623XXSP,2013-05-27 06:06:00,
2013-05-27 02:11:00,57.7,46.0,30.00,WSW,247,0.0,0.0,65,0.00,,,0.00,WUHU21623XXSP,2013-05-27 06:11:00,
2013-05-27 02:16:00,57.7,46.0,30.00,WSW,247,0.0,0.0,65,0.00,,,0.00,WUHU21623XXSP,2013-05-27 06:16:00,
2013-05-27 02:21:00,57.7,46.0,30.00,WSW,247,0.0,0.0,65,0.00,,,0.00,WUHU21623XXSP,2013-05-27 06:21:00,
2013-05-27 02:26:00,57.7,45.2,30.00,WSW,247,0.0,0.0,63,0.00,,,0.00,WUHU21623XXSP,2013-05-27 06:26:00,
2013-05-27 02:31:00,57.9,45.4,29.99,WSW,247,0.0,0.0,63,0.00,,,0.00,WUHU21623XXSP,2013-05-27 06:31:00,
2013-05-27 02:36:00,57.9,45.0,29.99,WSW,247,0.0,0.0,62,0.00,,,0.00,WUHU21623XXSP,2013-05-27 06:36:00,
2013-05-27 02:41:00,57.9,44.6,29.98,West,270,0.0,0.0,61,0.00,,,0.00,WUHU21623XXSP,2013-05-27 06:41:00,
2013-05-27 02:46:00,57.9,44.6,29.98,SW,225,0.0,0.0,61,0.00,,,0.00,WUHU21623XXSP,2013-05-27 06:46:00,
2013-05-27 02:51:00,57.9,43.2,29.98,South,180,0.0,0.0,58,0.00,,,0.00,WUHU21623XXSP,2013-05-27 06:51:00,
2013-05-27 02:56:00,58.1,43.4,29.98,WSW,247,0.0,0.0,58,0.00,,,0.00,WUHU21623XXSP,2013-05-27 06:56:00,
2013-05-27 03:01:00,58.3,43.1,29.98,NNW,337,0.0,0.0,57,0.00,,,0.00,WUHU21623XXSP,2013-05-27 07:01:00,
2013-05-27 03:06:00,58.3,42.6,29.98,ENE,67,0.0,0.0,56,0.00,,,0.00,WUHU21623XXSP,2013-05-27 07:06:00,
2013-05-27 03:11:00,58.3,43.1,29.98,ENE,67,0.0,0.0,57,0.00,,,0.00,WUHU21623XXSP,2013-05-27 07:11:00,
2013-05-27 03:16:00,58.3,43.1,29.98,ENE,67,0.0,0.0,57,0.00,,,0.00,WUHU21623XXSP,2013-05-27 07:16:00,
2013-05-27 03:21:00,58.3,43.1,29.98,ENE,67,0.0,0.0,57,0.00,,,0.00,WUHU21623XXSP,2013-05-27 07:21:00,
2013-05-27 03:26:00,58.5,43.3,29.98,ENE,67,0.0,0.0,57,0.00,,,0.00,WUHU21623XXSP,2013-05-27 07:26:00,
2013-05-27 03:31:00,58.5,42.8,29.98,ESE,112,0.0,0.0,56,0.00,,,0.00,WUHU21623XXSP,2013-05-27 07:31:00,
2013-05-27 03:36:00,58.5,42.8,29.98,WNW,292,0.0,0.0,56,0.00,,,0.00,WUHU21623XXSP,2013-05-27 07:36:00,
2013-05-27 03:41:00,58.3,42.8,29.98,NW,315,0.0,0.0,56,0.00,,,0.00,WUHU21623XXSP,2013-05-27 07:41:00,
2013-05-27 03:46:00,58.3,42.6,29.98,NE,45,0.0,0.0,56,0.00,,,0.00,WUHU21623XXSP,2013-05-27 07:46:00,
2013-05-27 03:51:00,58.3,43.1,29.98,West,270,0.0,0.0,57,0.00,,,0.00,WUHU21623XXSP,2013-05-27 07:51:00,
2013-05-27 03:56:00,58.3,43.1,29.97,WNW,292,0.0,0.0,57,0.00,,,0.00,WUHU21623XXSP,2013-05-27 07:56:00,
2013-05-27 04:01:00,58.3,42.6,29.97,NW,315,0.0,0.0,56,0.00,,,0.00,WUHU21623XXSP,2013-05-27 08:01:00,
2013-05-27 04:06:00,58.3,42.6,29.97,WSW,247,0.0,0.0,56,0.00,,,0.00,WUHU21623XXSP,2013-05-27 08:06:00,
2013-05-27 04:11:00,58.3,43.1,29.97,SW,225,0.0,0.0,57,0.00,,,0.00,WUHU21623XXSP,2013-05-27 08:11:00,
2013-05-27 04:16:00,58.3,43.1,29.97,SW,225,0.0,0.0,57,0.00,,,0.00,WUHU21623XXSP,2013-05-27 08:16:00,
2013-05-27 04:21:00,58.3,43.1,29.97,NW,315,0.0,0.0,57,0.00,,,0.00,WUHU21623XXSP,2013-05-27 08:21:00,
2013-05-27 04:26:00,58.3,43.1,29.96,NW,315,0.0,0.0,57,0.00,,,0.00,WUHU21623XXSP,2013-05-27 08:26:00,
2013-05-27 04:31:00,58.1,42.5,29.96,WNW,292,0.0,0.0,56,0.00,,,0.00,WUHU21623XXSP,2013-05-27 08:31:00,
2013-05-27 04:36:00,58.3,42.6,29.96,SSW,202,0.0,0.0,56,0.00,,,0.00,WUHU21623XXSP,2013-05-27 08:36:00,
2013-05-27 04:41:00,58.3,42.6,29.96,NW,315,0.0,0.0,56,0.00,,,0.00,WUHU21623XXSP,2013-05-27 08:41:00,
2013-05-27 04:46:00,58.3,42.2,29.96,NW,315,0.0,3.6,55,0.00,,,0.00,WUHU21623XXSP,2013-05-27 08:46:00,
2013-05-27 04:51:00,58.3,41.7,29.96,ENE,67,3.6,3.6,54,0.00,,,0.00,WUHU21623XXSP,2013-05-27 08:51:00,
2013-05-27 04:56:00,58.5,42.3,29.96,WNW,292,0.0,3.6,55,0.00,,,0.00,WUHU21623XXSP,2013-05-27 08:56:00,
2013-05-27 05:01:00,58.6,42.5,29.96,South,180,0.0,0.0,55,0.00,,,0.00,WUHU21623XXSP,2013-05-27 09:01:00,
2013-05-27 05:06:00,58.6,42.0,29.97,NNE,22,0.0,1.1,54,0.00,,,0.00,WUHU21623XXSP,2013-05-27 09:06:00,
2013-05-27 05:11:00,58.6,42.0,29.96,ENE,67,0.0,1.1,54,0.00,,,0.00,WUHU21623XXSP,2013-05-27 09:11:00,
2013-05-27 05:16:00,58.6,42.5,29.96,NW,315,0.0,0.0,55,0.00,,,0.00,WUHU21623XXSP,2013-05-27 09:16:00,
2013-05-27 05:21:00,58.6,42.5,29.96,SSW,202,0.0,0.0,55,0.00,,,0.00,WUHU21623XXSP,2013-05-27 09:21:00,
2013-05-27 05:26:00,58.6,42.0,29.96,ESE,112,0.0,1.6,54,0.00,,,0.00,WUHU21623XXSP,2013-05-27 09:26:00,
2013-05-27 05:31:00,58.6,42.5,29.96,ENE,67,0.9,1.6,55,0.00,,,0.00,WUHU21623XXSP,2013-05-27 09:31:00,
2013-05-27 05:36:00,58.6,42.5,29.96,WSW,242,0.9,3.1,55,0.00,,,0.00,WUHU21623XXSP,2013-05-27 09:36:00,
2013-05-27 05:41:00,58.6,43.4,29.96,SW,229,2.4,4.7,57,0.00,,,0.00,WUHU21623XXSP,2013-05-27 09:41:00,
2013-05-27 05:46:00,58.6,44.3,29.96,NNE,22,0.0,4.7,59,0.00,,,0.00,WUHU21623XXSP,2013-05-27 09:46:00,
2013-05-27 05:51:00,58.3,45.3,29.96,ENE,67,0.9,3.8,62,0.00,,,0.00,WUHU21623XXSP,2013-05-27 09:51:00,
2013-05-27 05:56:00,57.9,45.8,29.96,NNE,22,0.0,2.0,64,0.00,,,0.00,WUHU21623XXSP,2013-05-27 09:56:00,
2013-05-27 06:01:00,57.6,46.2,29.97,NE,45,0.0,2.0,66,0.00,,,0.00,WUHU21623XXSP,2013-05-27 10:01:00,
2013-05-27 06:06:00,57.2,46.3,29.96,ESE,112,0.0,0.0,67,0.00,,,0.00,WUHU21623XXSP,2013-05-27 10:06:00,
2013-05-27 06:11:00,57.0,46.5,29.96,NW,315,0.0,0.0,68,0.00,,,0.00,WUHU21623XXSP,2013-05-27 10:11:00,
2013-05-27 06:16:00,56.7,47.0,29.97,West,270,0.0,0.0,70,0.00,,,0.00,WUHU21623XXSP,2013-05-27 10:16:00,
2013-05-27 06:21:00,56.5,46.8,29.97,NNW,337,0.0,0.0,70,0.00,,,0.00,WUHU21623XXSP,2013-05-27 10:21:00,
2013-05-27 06:26:00,56.1,46.5,29.97,NE,45,0.0,1.6,70,0.00,,,0.00,WUHU21623XXSP,2013-05-27 10:26:00,
2013-05-27 06:31:00,56.1,46.9,29.97,South,180,0.0,1.6,71,0.00,,,0.00,WUHU21623XXSP,2013-05-27 10:31:00,
2013-05-27 06:36:00,56.1,46.5,29.97,North,0,0.0,0.0,70,0.00,,,0.00,WUHU21623XXSP,2013-05-27 10:36:00,
2013-05-27 06:41:00,56.1,46.5,29.97,North,0,0.0,0.0,70,0.00,,,0.00,WUHU21623XXSP,2013-05-27 10:41:00,
2013-05-27 06:46:00,56.1,45.7,29.97,West,270,0.9,2.0,68,0.00,,,0.00,WUHU21623XXSP,2013-05-27 10:46:00,
2013-05-27 06:51:00,56.1,45.3,29.98,SW,233,1.5,2.0,67,0.00,,,0.00,WUHU21623XXSP,2013-05-27 10:51:00,
2013-05-27 06:56:00,56.3,45.9,29.98,NW,315,0.0,1.8,68,0.00,,,0.00,WUHU21623XXSP,2013-05-27 10:56:00,
2013-05-27 07:01:00,56.3,45.0,29.98,East,90,0.0,1.3,66,0.00,,,0.00,WUHU21623XXSP,2013-05-27 11:01:00,
2013-05-27 07:06:00,56.5,45.2,29.98,WSW,247,0.0,1.8,66,0.00,,,0.00,WUHU21623XXSP,2013-05-27 11:06:00,
2013-05-27 07:11:00,56.5,45.2,29.97,SW,225,0.9,3.4,66,0.00,,,0.00,WUHU21623XXSP,2013-05-27 11:11:00,
2013-05-27 07:16:00,56.5,45.6,29.97,NE,45,2.3,3.4,67,0.00,,,0.00,WUHU21623XXSP,2013-05-27 11:16:00,
2013-05-27 07:21:00,56.5,45.6,29.97,SE,144,2.6,5.1,67,0.00,,,0.00,WUHU21623XXSP,2013-05-27 11:21:00,
2013-05-27 07:26:00,56.5,45.6,29.96,NE,45,0.9,5.1,67,0.00,,,0.00,WUHU21623XXSP,2013-05-27 11:26:00,
2013-05-27 07:31:00,56.5,46.0,29.96,East,86,2.4,5.1,68,0.00,,,0.00,WUHU21623XXSP,2013-05-27 11:31:00,
2013-05-27 07:36:00,56.5,46.8,29.96,SSW,213,2.2,5.1,70,0.00,,,0.00,WUHU21623XXSP,2013-05-27 11:36:00,
2013-05-27 07:41:00,56.3,46.7,29.97,South,180,3.8,9.6,70,0.00,,,0.00,WUHU21623XXSP,2013-05-27 11:41:00,
2013-05-27 07:46:00,56.1,47.2,29.96,SSW,204,2.7,10.3,72,0.00,,,0.00,WUHU21623XXSP,2013-05-27 11:46:00,
2013-05-27 07:51:00,55.9,47.4,29.96,South,185,1.0,10.3,73,0.00,,,0.00,WUHU21623XXSP,2013-05-27 11:51:00,
2013-05-27 07:56:00,55.8,47.2,29.97,WSW,238,1.1,3.6,73,0.00,,,0.00,WUHU21623XXSP,2013-05-27 11:56:00,
2013-05-27 08:01:00,55.6,47.4,29.97,South,184,1.5,8.1,74,0.00,,,0.00,WUHU21623XXSP,2013-05-27 12:01:00,
2013-05-27 08:06:00,55.4,47.6,29.97,South,175,1.9,8.1,75,0.00,,,0.00,WUHU21623XXSP,2013-05-27 12:06:00,
2013-05-27 08:11:00,55.2,47.4,29.97,East,90,0.0,4.3,75,0.00,,,0.00,WUHU21623XXSP,2013-05-27 12:11:00,
2013-05-27 08:16:00,55.0,47.6,29.97,South,175,2.0,3.8,76,0.00,,,0.00,WUHU21623XXSP,2013-05-27 12:16:00,
2013-05-27 08:21:00,54.9,47.8,29.97,NNW,337,0.0,7.8,77,0.00,,,0.00,WUHU21623XXSP,2013-05-27 12:21:00,
2013-05-27 08:26:00,54.7,47.6,29.97,ESE,104,1.1,7.8,77,0.00,,,0.00,WUHU21623XXSP,2013-05-27 12:26:00,
2013-05-27 08:31:00,54.5,48.1,29.97,South,185,1.7,2.9,79,0.00,,,0.00,WUHU21623XXSP,2013-05-27 12:31:00,
2013-05-27 08:36:00,54.3,47.9,29.96,SSE,152,2.5,4.3,79,0.00,,,0.00,WUHU21623XXSP,2013-05-27 12:36:00,
2013-05-27 08:41:00,54.1,48.1,29.96,NE,46,2.0,4.3,80,0.00,,,0.00,WUHU21623XXSP,2013-05-27 12:41:00,
2013-05-27 08:46:00,54.0,48.0,29.96,NW,315,1.1,4.7,80,0.00,,,0.00,WUHU21623XXSP,2013-05-27 12:46:00,
2013-05-27 08:51:00,53.8,47.8,29.96,NE,45,0.0,4.7,80,0.00,,,0.00,WUHU21623XXSP,2013-05-27 12:51:00,
2013-05-27 08:56:00,53.8,48.1,29.96,South,189,1.9,2.5,81,0.00,,,0.00,WUHU21623XXSP,2013-05-27 12:56:00,
2013-05-27 09:01:00,53.6,48.3,29.96,SW,221,2.1,3.1,82,0.00,,,0.00,WUHU21623XXSP,2013-05-27 13:01:00,
2013-05-27 09:06:00,53.4,48.1,29.96,North,0,0.0,3.1,82,0.00,,,0.00,WUHU21623XXSP,2013-05-27 13:06:00,
2013-05-27 09:11:00,53.4,48.1,29.96,NE,45,0.0,0.0,82,0.00,,,0.00,WUHU21623XXSP,2013-05-27 13:11:00,
2013-05-27 09:16:00,53.4,48.4,29.96,ESE,123,1.8,2.9,83,0.00,,,0.00,WUHU21623XXSP,2013-05-27 13:16:00,
2013-05-27 09:21:00,53.4,48.4,29.95,NE,45,2.9,5.8,83,0.00,,,0.00,WUHU21623XXSP,2013-05-27 13:21:00,
2013-05-27 09:26:00,53.4,48.4,29.95,SSW,193,1.2,5.8,83,0.00,,,0.00,WUHU21623XXSP,2013-05-27 13:26:00,
2013-05-27 09:31:00,53.4,48.7,29.95,NE,45,0.0,1.3,84,0.00,,,0.00,WUHU21623XXSP,2013-05-27 13:31:00,
2013-05-27 09:36:00,53.4,48.7,29.95,West,262,2.3,3.1,84,0.00,,,0.00,WUHU21623XXSP,2013-05-27 13:36:00,
2013-05-27 09:41:00,53.4,48.7,29.95,NE,45,1.3,3.1,84,0.00,,,0.00,WUHU21623XXSP,2013-05-27 13:41:00,
2013-05-27 09:46:00,53.4,48.7,29.95,WSW,237,2.3,6.0,84,0.00,,,0.00,WUHU21623XXSP,2013-05-27 13:46:00,
2013-05-27 09:51:00,53.4,49.0,29.95,East,82,1.3,6.0,85,0.00,,,0.00,WUHU21623XXSP,2013-05-27 13:51:00,
2013-05-27 09:56:00,53.4,49.0,29.95,NNW,337,1.6,1.8,85,0.00,,,0.00,WUHU21623XXSP,2013-05-27 13:56:00,
2013-05-27 10:01:00,53.6,49.2,29.95,NNW,337,0.0,2.0,85,0.00,,,0.00,WUHU21623XXSP,2013-05-27 14:01:00,
2013-05-27 10:06:00,53.6,49.2,29.95,West,270,0.9,2.0,85,0.00,,,0.00,WUHU21623XXSP,2013-05-27 14:06:00,
2013-05-27 10:11:00,53.8,49.4,29.94,NNE,22,0.0,2.0,85,0.00,,,0.00,WUHU21623XXSP,2013-05-27 14:11:00,
2013-05-27 10:16:00,53.8,49.4,29.94,SSE,157,2.5,5.1,85,0.02,,,0.02,WUHU21623XXSP,2013-05-27 14:16:00,
2013-05-27 10:21:00,53.8,49.4,29.94,NNW,339,2.2,5.1,85,0.02,,,0.02,WUHU21623XXSP,2013-05-27 14:21:00,
2013-05-27 10:26:00,53.8,49.4,29.94,SW,216,2.9,4.7,85,0.02,,,0.02,WUHU21623XXSP,2013-05-27 14:26:00,
2013-05-27 10:31:00,53.4,49.0,29.94,North,0,0.0,4.7,85,0.02,,,0.02,WUHU21623XXSP,2013-05-27 14:31:00,
2013-05-27 10:36:00,53.4,49.0,29.94,SE,135,0.0,2.7,85,0.02,,,0.02,WUHU21623XXSP,2013-05-27 14:36:00,
2013-05-27 10:41:00,53.4,49.0,29.94,ENE,67,0.0,2.7,85,0.02,,,0.02,WUHU21623XXSP,2013-05-27 14:41:00,
2013-05-27 10:46:00,53.4,49.0,29.94,SE,135,3.1,3.1,85,0.02,,,0.02,WUHU21623XXSP,2013-05-27 14:46:00,
2013-05-27 10:51:00,53.4,49.0,29.94,NNE,22,3.8,3.8,85,0.02,,,0.02,WUHU21623XXSP,2013-05-27 14:51:00,
2013-05-27 10:56:00,53.4,49.0,29.94,WSW,247,0.9,7.2,85,0.02,,,0.02,WUHU21623XXSP,2013-05-27 14:56:00,
2013-05-27 11:01:00,53.4,49.0,29.94,NNE,32,2.0,7.2,85,0.02,,,0.02,WUHU21623XXSP,2013-05-27 15:01:00,
2013-05-27 11:06:00,53.4,49.0,29.93,ENE,67,0.0,2.9,85,0.04,,,0.04,WUHU21623XXSP,2013-05-27 15:06:00,
2013-05-27 11:11:00,53.2,48.8,29.93,NNE,15,1.0,2.9,85,0.04,,,0.04,WUHU21623XXSP,2013-05-27 15:11:00,
2013-05-27 11:16:00,53.4,49.3,29.92,North,0,1.5,2.0,86,0.04,,,0.06,WUHU21623XXSP,2013-05-27 15:16:00,
2013-05-27 11:21:00,53.2,49.1,29.92,NW,315,2.0,3.8,86,0.04,,,0.06,WUHU21623XXSP,2013-05-27 15:21:00,
2013-05-27 11:26:00,53.2,49.1,29.92,West,260,2.0,4.0,86,0.04,,,0.06,WUHU21623XXSP,2013-05-27 15:26:00,
2013-05-27 11:31:00,53.2,49.1,29.92,ENE,67,0.0,4.0,86,0.04,,,0.06,WUHU21623XXSP,2013-05-27 15:31:00,
2013-05-27 11:36:00,53.2,49.4,29.92,SE,135,1.1,4.7,87,0.04,,,0.06,WUHU21623XXSP,2013-05-27 15:36:00,
2013-05-27 11:41:00,53.4,49.6,29.91,ESE,107,2.9,5.4,87,0.04,,,0.06,WUHU21623XXSP,2013-05-27 15:41:00,
2013-05-27 11:46:00,53.4,49.6,29.91,NE,51,1.7,5.4,87,0.04,,,0.06,WUHU21623XXSP,2013-05-27 15:46:00,
2013-05-27 11:51:00,53.4,49.6,29.90,WNW,303,3.5,4.5,87,0.04,,,0.06,WUHU21623XXSP,2013-05-27 15:51:00,
2013-05-27 11:56:00,53.4,49.6,29.90,NE,45,1.3,4.5,87,0.04,,,0.06,WUHU21623XXSP,2013-05-27 15:56:00,
2013-05-27 12:01:00,53.4,49.6,29.90,NNE,22,0.0,3.6,87,0.04,,,0.06,WUHU21623XXSP,2013-05-27 16:01:00,
2013-05-27 12:06:00,53.4,49.6,29.90,NNE,33,1.6,2.5,87,0.02,,,0.06,WUHU21623XXSP,2013-05-27 16:06:00,
2013-05-27 12:11:00,53.4,49.6,29.90,NNE,13,2.0,2.9,87,0.02,,,0.06,WUHU21623XXSP,2013-05-27 16:11:00,
2013-05-27 12:16:00,53.4,49.6,29.90,SW,227,3.4,4.7,87,0.00,,,0.06,WUHU21623XXSP,2013-05-27 16:16:00,
2013-05-27 12:21:00,53.6,49.8,29.89,NNE,33,1.5,4.7,87,0.00,,,0.06,WUHU21623XXSP,2013-05-27 16:21:00,
2013-05-27 12:26:00,53.4,49.6,29.90,NNE,21,2.2,3.8,87,0.00,,,0.06,WUHU21623XXSP,2013-05-27 16:26:00,
2013-05-27 12:31:00,53.8,50.0,29.89,West,259,2.5,6.5,87,0.00,,,0.06,WUHU21623XXSP,2013-05-27 16:31:00,
2013-05-27 12:36:00,54.0,50.1,29.89,NE,45,1.2,6.5,87,0.00,,,0.06,WUHU21623XXSP,2013-05-27 16:36:00,
2013-05-27 12:41:00,54.0,50.1,29.89,NE,45,0.0,1.8,87,0.00,,,0.06,WUHU21623XXSP,2013-05-27 16:41:00,
2013-05-27 12:46:00,54.1,50.3,29.89,East,80,1.9,3.1,87,0.00,,,0.06,WUHU21623XXSP,2013-05-27 16:46:00,
2013-05-27 12:51:00,54.1,50.3,29.89,NE,45,0.9,3.1,87,0.00,,,0.06,WUHU21623XXSP,2013-05-27 16:51:00,
2013-05-27 12:56:00,54.3,50.5,29.89,South,175,2.7,7.2,87,0.00,,,0.06,WUHU21623XXSP,2013-05-27 16:56:00,
2013-05-27 13:01:00,54.3,50.5,29.89,WSW,247,0.0,7.2,87,0.00,,,0.06,WUHU21623XXSP,2013-05-27 17:01:00,
2013-05-27 13:06:00,54.5,50.7,29.89,SSW,212,2.1,3.8,87,0.00,,,0.06,WUHU21623XXSP,2013-05-27 17:06:00,
2013-05-27 13:11:00,54.5,50.4,29.89,ESE,102,3.2,5.8,86,0.00,,,0.06,WUHU21623XXSP,2013-05-27 17:11:00,
2013-05-27 13:16:00,54.7,50.5,29.89,WSW,253,1.9,5.8,86,0.00,,,0.06,WUHU21623XXSP,2013-05-27 17:16:00,
2013-05-27 13:21:00,54.9,50.7,29.89,South,180,0.0,3.1,86,0.00,,,0.06,WUHU21623XXSP,2013-05-27 17:21:00,
2013-05-27 13:26:00,55.0,50.9,29.88,SSE,166,1.5,5.1,86,0.00,,,0.06,WUHU21623XXSP,2013-05-27 17:26:00,
2013-05-27 13:31:00,55.2,51.0,29.89,West,270,1.3,5.1,86,0.00,,,0.06,WUHU21623XXSP,2013-05-27 17:31:00,
2013-05-27 13:36:00,55.2,50.7,29.88,East,97,2.1,4.7,85,0.00,,,0.06,WUHU21623XXSP,2013-05-27 17:36:00,
2013-05-27 13:41:00,55.2,50.7,29.88,WSW,240,2.9,4.7,85,0.00,,,0.06,WUHU21623XXSP,2013-05-27 17:41:00,
2013-05-27 13:46:00,55.2,50.7,29.88,SE,134,2.5,5.6,85,0.00,,,0.06,WUHU21623XXSP,2013-05-27 17:46:00,
2013-05-27 13:51:00,55.4,50.9,29.87,WNW,285,1.0,5.6,85,0.00,,,0.06,WUHU21623XXSP,2013-05-27 17:51:00,
2013-05-27 13:56:00,55.6,51.1,29.87,WSW,247,0.0,2.9,85,0.00,,,0.06,WUHU21623XXSP,2013-05-27 17:56:00,
2013-05-27 14:01:00,55.6,51.1,29.87,West,270,2.3,4.3,85,0.00,,,0.06,WUHU21623XXSP,2013-05-27 18:01:00,
2013-05-27 14:06:00,55.6,51.1,29.87,East,87,2.8,4.9,85,0.00,,,0.06,WUHU21623XXSP,2013-05-27 18:06:00,
2013-05-27 14:11:00,55.8,51.3,29.87,SSW,202,0.0,4.9,85,0.00,,,0.06,WUHU21623XXSP,2013-05-27 18:11:00,
2013-05-27 14:16:00,55.9,51.1,29.86,West,281,2.5,5.1,84,0.00,,,0.06,WUHU21623XXSP,2013-05-27 18:16:00,
2013-05-27 14:21:00,55.9,51.1,29.87,NNW,337,1.8,5.1,84,0.00,,,0.06,WUHU21623XXSP,2013-05-27 18:21:00,
2013-05-27 14:26:00,55.8,50.6,29.86,NE,45,0.0,3.1,83,0.00,,,0.06,WUHU21623XXSP,2013-05-27 18:26:00,
2013-05-27 14:31:00,55.9,50.8,29.87,SSW,205,1.3,3.1,83,0.00,,,0.06,WUHU21623XXSP,2013-05-27 18:31:00,
2013-05-27 14:36:00,55.9,50.8,29.86,NNW,337,0.9,2.2,83,0.00,,,0.06,WUHU21623XXSP,2013-05-27 18:36:00,
2013-05-27 14:41:00,55.9,50.8,29.87,NE,45,0.0,1.6,83,0.00,,,0.06,WUHU21623XXSP,2013-05-27 18:41:00,
2013-05-27 14:46:00,55.9,50.8,29.86,NNE,18,1.4,7.2,83,0.00,,,0.06,WUHU21623XXSP,2013-05-27 18:46:00,
2013-05-27 14:51:00,55.9,51.1,29.87,WSW,257,1.6,7.2,84,0.00,,,0.06,WUHU21623XXSP,2013-05-27 18:51:00,
2013-05-27 14:56:00,55.8,50.9,29.87,NW,308,3.7,6.3,84,0.00,,,0.06,WUHU21623XXSP,2013-05-27 18:56:00,
2013-05-27 15:01:00,55.9,51.1,29.87,East,101,0.9,6.3,84,0.00,,,0.06,WUHU21623XXSP,2013-05-27 19:01:00,
2013-05-27 15:06:00,55.9,51.1,29.87,SW,225,0.0,1.3,84,0.00,,,0.06,WUHU21623XXSP,2013-05-27 19:06:00,
2013-05-27 15:11:00,55.9,51.1,29.86,NNE,22,0.0,1.3,84,0.00,,,0.06,WUHU21623XXSP,2013-05-27 19:11:00,
2013-05-27 15:16:00,55.9,51.1,29.86,SW,225,1.3,3.6,84,0.00,,,0.06,WUHU21623XXSP,2013-05-27 19:16:00,
2013-05-27 15:21:00,55.9,50.8,29.86,NW,315,0.0,3.6,83,0.00,,,0.06,WUHU21623XXSP,2013-05-27 19:21:00,
2013-05-27 15:26:00,56.1,51.3,29.86,East,90,0.0,2.2,84,0.00,,,0.06,WUHU21623XXSP,2013-05-27 19:26:00,
2013-05-27 15:31:00,56.3,51.5,29.86,ESE,112,1.3,2.2,84,0.00,,,0.06,WUHU21623XXSP,2013-05-27 19:31:00,
2013-05-27 15:36:00,56.5,51.3,29.86,NE,45,0.0,1.3,83,0.00,,,0.06,WUHU21623XXSP,2013-05-27 19:36:00,
2013-05-27 15:41:00,56.8,51.7,29.86,NE,45,0.0,1.3,83,0.00,,,0.06,WUHU21623XXSP,2013-05-27 19:41:00,
2013-05-27 15:46:00,56.8,51.4,29.86,ENE,67,0.0,3.6,82,0.00,,,0.06,WUHU21623XXSP,2013-05-27 19:46:00,
2013-05-27 15:51:00,56.8,51.7,29.86,NE,45,0.0,3.6,83,0.00,,,0.06,WUHU21623XXSP,2013-05-27 19:51:00,
2013-05-27 15:56:00,56.8,51.4,29.85,NNE,22,0.0,2.2,82,0.00,,,0.06,WUHU21623XXSP,2013-05-27 19:56:00,
2013-05-27 16:01:00,56.8,51.4,29.85,WSW,247,1.1,2.2,82,0.00,,,0.06,WUHU21623XXSP,2013-05-27 20:01:00,
2013-05-27 16:06:00,56.5,51.3,29.85,North,350,2.0,2.7,83,0.00,,,0.06,WUHU21623XXSP,2013-05-27 20:06:00,
2013-05-27 16:11:00,56.5,51.3,29.85,South,180,0.0,2.7,83,0.00,,,0.06,WUHU21623XXSP,2013-05-27 20:11:00,
2013-05-27 16:16:00,56.5,51.3,29.85,NNE,22,1.3,1.3,83,0.00,,,0.06,WUHU21623XXSP,2013-05-27 20:16:00,
2013-05-27 16:21:00,56.5,51.3,29.84,North,0,0.0,1.3,83,0.00,,,0.06,WUHU21623XXSP,2013-05-27 20:21:00,
2013-05-27 16:26:00,56.5,51.3,29.84,East,90,0.7,1.3,83,0.00,,,0.06,WUHU21623XXSP,2013-05-27 20:26:00,
2013-05-27 16:31:00,56.5,51.3,29.84,NNE,22,0.0,1.6,83,0.00,,,0.06,WUHU21623XXSP,2013-05-27 20:31:00,
2013-05-27 16:36:00,56.3,51.5,29.84,NNE,22,0.9,1.6,84,0.00,,,0.06,WUHU21623XXSP,2013-05-27 20:36:00,
2013-05-27 16:41:00,56.3,51.5,29.84,North,0,0.0,0.9,84,0.00,,,0.06,WUHU21623XXSP,2013-05-27 20:41:00,
2013-05-27 16:46:00,56.1,51.3,29.84,NNE,22,0.0,0.0,84,0.00,,,0.06,WUHU21623XXSP,2013-05-27 20:46:00,
2013-05-27 16:51:00,56.1,51.3,29.84,NE,45,0.0,0.9,84,0.00,,,0.06,WUHU21623XXSP,2013-05-27 20:51:00,
2013-05-27 16:56:00,56.1,51.3,29.84,NE,45,0.0,0.9,84,0.00,,,0.06,WUHU21623XXSP,2013-05-27 20:56:00,
2013-05-27 17:01:00,55.9,51.1,29.83,WNW,286,1.5,2.2,84,0.00,,,0.06,WUHU21623XXSP,2013-05-27 21:01:00,
2013-05-27 17:06:00,55.9,51.4,29.83,ESE,121,1.6,4.0,85,0.00,,,0.06,WUHU21623XXSP,2013-05-27 21:06:00,
2013-05-27 17:11:00,55.9,51.4,29.82,NE,45,0.0,4.0,85,0.00,,,0.06,WUHU21623XXSP,2013-05-27 21:11:00,
2013-05-27 17:16:00,55.8,51.3,29.82,NE,45,0.0,0.0,85,0.00,,,0.06,WUHU21623XXSP,2013-05-27 21:16:00,
2013-05-27 17:21:00,55.8,51.3,29.82,NE,37,1.3,1.6,85,0.00,,,0.06,WUHU21623XXSP,2013-05-27 21:21:00,
2013-05-27 17:26:00,55.8,51.3,29.81,NE,45,0.0,1.6,85,0.00,,,0.06,WUHU21623XXSP,2013-05-27 21:26:00,
2013-05-27 17:31:00,55.8,51.3,29.81,North,9,1.4,1.6,85,0.00,,,0.06,WUHU21623XXSP,2013-05-27 21:31:00,
2013-05-27 17:36:00,55.8,51.3,29.81,East,90,0.0,1.6,85,0.00,,,0.06,WUHU21623XXSP,2013-05-27 21:36:00,
2013-05-27 17:41:00,55.8,51.3,29.81,North,0,0.0,1.1,85,0.00,,,0.06,WUHU21623XXSP,2013-05-27 21:41:00,
2013-05-27 17:46:00,55.8,51.3,29.80,WNW,292,0.0,1.3,85,0.00,,,0.06,WUHU21623XXSP,2013-05-27 21:46:00,
2013-05-27 17:51:00,55.8,51.3,29.81,NNW,337,0.9,1.3,85,0.00,,,0.06,WUHU21623XXSP,2013-05-27 21:51:00,
2013-05-27 17:56:00,55.8,51.3,29.80,NE,45,0.0,0.9,85,0.00,,,0.06,WUHU21623XXSP,2013-05-27 21:56:00,
2013-05-27 18:01:00,55.8,51.3,29.80,ENE,67,0.0,0.0,85,0.00,,,0.06,WUHU21623XXSP,2013-05-27 22:01:00,
2013-05-27 18:06:00,55.8,51.3,29.80,NE,55,1.2,1.6,85,0.00,,,0.06,WUHU21623XXSP,2013-05-27 22:06:00,
2013-05-27 18:11:00,55.6,51.1,29.79,NE,45,0.0,1.6,85,0.00,,,0.06,WUHU21623XXSP,2013-05-27 22:11:00,
2013-05-27 18:16:00,55.6,51.1,29.79,NE,45,0.0,1.8,85,0.00,,,0.06,WUHU21623XXSP,2013-05-27 22:16:00,
2013-05-27 18:21:00,55.6,51.1,29.79,NE,45,0.0,1.8,85,0.00,,,0.06,WUHU21623XXSP,2013-05-27 22:21:00,
2013-05-27 18:26:00,55.8,51.6,29.78,East,90,0.0,1.3,86,0.00,,,0.06,WUHU21623XXSP,2013-05-27 22:26:00,
2013-05-27 18:31:00,55.8,51.6,29.78,East,90,0.0,1.3,86,0.00,,,0.06,WUHU21623XXSP,2013-05-27 22:31:00,
2013-05-27 18:36:00,55.9,51.8,29.78,NW,315,0.0,3.1,86,0.00,,,0.06,WUHU21623XXSP,2013-05-27 22:36:00,
2013-05-27 18:41:00,55.9,51.8,29.79,NE,45,0.0,3.1,86,0.00,,,0.06,WUHU21623XXSP,2013-05-27 22:41:00,
2013-05-27 18:46:00,55.9,51.4,29.80,WSW,247,6.9,6.9,85,0.00,,,0.06,WUHU21623XXSP,2013-05-27 22:46:00,
2013-05-27 18:51:00,56.1,51.6,29.79,North,8,1.5,6.9,85,0.00,,,0.06,WUHU21623XXSP,2013-05-27 22:51:00,
2013-05-27 18:56:00,56.1,51.6,29.79,NNE,22,0.0,3.1,85,0.00,,,0.06,WUHU21623XXSP,2013-05-27 22:56:00,
2013-05-27 19:01:00,56.1,51.6,29.79,WSW,247,0.0,3.1,85,0.00,,,0.06,WUHU21623XXSP,2013-05-27 23:01:00,
2013-05-27 19:06:00,56.1,51.6,29.78,ESE,107,1.5,2.5,85,0.00,,,0.06,WUHU21623XXSP,2013-05-27 23:06:00,
2013-05-27 19:11:00,56.1,51.6,29.78,NE,45,0.0,2.5,85,0.00,,,0.06,WUHU21623XXSP,2013-05-27 23:11:00,
2013-05-27 19:16:00,56.1,51.6,29.78,NE,45,0.0,0.0,85,0.00,,,0.06,WUHU21623XXSP,2013-05-27 23:16:00,
2013-05-27 19:21:00,55.9,51.4,29.78,North,6,1.5,2.2,85,0.00,,,0.06,WUHU21623XXSP,2013-05-27 23:21:00,
2013-05-27 19:26:00,56.1,51.6,29.77,NNW,337,0.0,2.2,85,0.00,,,0.06,WUHU21623XXSP,2013-05-27 23:26:00,
2013-05-27 19:31:00,55.9,51.4,29.77,NE,45,0.0,0.0,85,0.00,,,0.06,WUHU21623XXSP,2013-05-27 23:31:00,
2013-05-27 19:36:00,55.9,51.4,29.77,NE,45,0.9,0.9,85,0.00,,,0.06,WUHU21623XXSP,2013-05-27 23:36:00,
2013-05-27 19:41:00,55.9,51.4,29.77,NNE,22,0.0,2.0,85,0.00,,,0.06,WUHU21623XXSP,2013-05-27 23:41:00,
2013-05-27 19:46:00,55.9,51.4,29.77,ENE,67,0.0,2.0,85,0.00,,,0.06,WUHU21623XXSP,2013-05-27 23:46:00,
2013-05-27 19:51:00,55.8,51.3,29.78,NNW,337,0.7,0.7,85,0.00,,,0.06,WUHU21623XXSP,2013-05-27 23:51:00,
2013-05-27 19:56:00,55.8,51.3,29.77,WNW,292,0.9,0.9,85,0.00,,,0.06,WUHU21623XXSP,2013-05-27 23:56:00,
2013-05-27 20:01:00,55.8,51.3,29.78,East,90,0.0,1.8,85,0.00,,,0.06,WUHU21623XXSP,2013-05-28 00:01:00,
2013-05-27 20:06:00,55.8,51.3,29.78,North,0,1.6,1.8,85,0.00,,,0.06,WUHU21623XXSP,2013-05-28 00:06:00,
2013-05-27 20:11:00,55.8,51.3,29.77,North,0,0.0,1.6,85,0.00,,,0.06,WUHU21623XXSP,2013-05-28 00:11:00,
2013-05-27 20:16:00,55.6,51.1,29.76,NNE,22,0.9,0.9,85,0.00,,,0.06,WUHU21623XXSP,2013-05-28 00:16:00,
2013-05-27 20:21:00,55.6,51.1,29.76,NE,45,0.0,1.3,85,0.00,,,0.06,WUHU21623XXSP,2013-05-28 00:21:00,
2013-05-27 20:26:00,55.6,51.1,29.77,NE,45,0.0,1.3,85,0.00,,,0.06,WUHU21623XXSP,2013-05-28 00:26:00,
2013-05-27 20:31:00,55.6,51.1,29.76,NNE,22,0.0,0.0,85,0.00,,,0.06,WUHU21623XXSP,2013-05-28 00:31:00,
2013-05-27 20:36:00,55.4,50.9,29.76,NNW,337,0.0,0.0,85,0.00,,,0.06,WUHU21623XXSP,2013-05-28 00:36:00,
2013-05-27 20:41:00,55.2,50.7,29.76,NE,45,0.0,3.4,85,0.00,,,0.06,WUHU21623XXSP,2013-05-28 00:41:00,
2013-05-27 20:46:00,55.2,50.7,29.77,NW,315,0.0,3.4,85,0.00,,,0.06,WUHU21623XXSP,2013-05-28 00:46:00,
2013-05-27 20:51:00,55.2,50.7,29.77,NW,315,0.0,0.0,85,0.00,,,0.06,WUHU21623XXSP,2013-05-28 00:51:00,
2013-05-27 20:56:00,55.2,50.7,29.77,East,90,0.0,0.0,85,0.00,,,0.06,WUHU21623XXSP,2013-05-28 00:56:00,
2013-05-27 21:01:00,55.2,50.7,29.77,ENE,67,0.0,0.0,85,0.00,,,0.06,WUHU21623XXSP,2013-05-28 01:01:00,
2013-05-27 21:06:00,55.2,51.0,29.77,ENE,67,0.0,0.0,86,0.00,,,0.06,WUHU21623XXSP,2013-05-28 01:06:00,
2013-05-27 21:11:00,55.2,51.0,29.77,NE,45,0.0,1.1,86,0.00,,,0.06,WUHU21623XXSP,2013-05-28 01:11:00,
2013-05-27 21:16:00,55.0,50.9,29.77,ENE,67,0.0,1.1,86,0.00,,,0.06,WUHU21623XXSP,2013-05-28 01:16:00,
2013-05-27 21:21:00,55.0,50.9,29.77,NNE,22,0.0,1.8,86,0.00,,,0.06,WUHU21623XXSP,2013-05-28 01:21:00,
2013-05-27 21:26:00,55.0,50.9,29.76,NE,45,0.0,1.8,86,0.00,,,0.06,WUHU21623XXSP,2013-05-28 01:26:00,
2013-05-27 21:31:00,54.9,50.7,29.76,NNE,22,0.0,0.0,86,0.02,,,0.08,WUHU21623XXSP,2013-05-28 01:31:00,
2013-05-27 21:36:00,54.7,50.5,29.76,NE,45,0.0,0.0,86,0.02,,,0.08,WUHU21623XXSP,2013-05-28 01:36:00,
2013-05-27 21:41:00,54.7,50.8,29.76,NNW,337,0.9,0.9,87,0.02,,,0.08,WUHU21623XXSP,2013-05-28 01:41:00,
2013-05-27 21:46:00,54.5,50.7,29.77,NNW,337,0.0,0.9,87,0.02,,,0.08,WUHU21623XXSP,2013-05-28 01:46:00,
2013-05-27 21:51:00,54.5,50.7,29.76,NNW,337,0.0,0.0,87,0.02,,,0.08,WUHU21623XXSP,2013-05-28 01:51:00,
2013-05-27 21:56:00,54.3,50.5,29.76,NNW,337,0.0,0.0,87,0.02,,,0.08,WUHU21623XXSP,2013-05-28 01:56:00,
2013-05-27 22:01:00,54.3,50.5,29.76,ENE,67,0.0,0.0,87,0.02,,,0.08,WUHU21623XXSP,2013-05-28 02:01:00,
2013-05-27 22:06:00,54.3,50.5,29.76,NE,45,0.0,0.0,87,0.02,,,0.08,WUHU21623XXSP,2013-05-28 02:06:00,
2013-05-27 22:11:00,54.3,50.5,29.76,ENE,67,0.0,0.0,87,0.02,,,0.08,WUHU21623XXSP,2013-05-28 02:11:00,
2013-05-27 22:16:00,54.3,50.5,29.76,ENE,67,0.0,0.0,87,0.02,,,0.08,WUHU21623XXSP,2013-05-28 02:16:00,
2013-05-27 22:21:00,54.3,50.5,29.76,ENE,67,0.0,0.0,87,0.02,,,0.08,WUHU21623XXSP,2013-05-28 02:21:00,
2013-05-27 22:26:00,54.1,50.6,29.75,ENE,67,0.0,0.0,88,0.02,,,0.08,WUHU21623XXSP,2013-05-28 02:26:00,
2013-05-27 22:31:00,54.1,50.6,29.76,ENE,67,0.0,0.0,88,0.00,,,0.08,WUHU21623XXSP,2013-05-28 02:31:00,
2013-05-27 22:36:00,54.1,50.6,29.76,ENE,67,0.0,0.0,88,0.00,,,0.08,WUHU21623XXSP,2013-05-28 02:36:00,
2013-05-27 22:41:00,54.1,50.6,29.76,South,186,1.3,1.6,88,0.00,,,0.08,WUHU21623XXSP,2013-05-28 02:41:00,
2013-05-27 22:46:00,54.1,50.6,29.76,North,0,0.0,1.6,88,0.00,,,0.08,WUHU21623XXSP,2013-05-28 02:46:00,
2013-05-27 22:51:00,54.1,50.6,29.76,North,0,0.0,0.0,88,0.00,,,0.08,WUHU21623XXSP,2013-05-28 02:51:00,
2013-05-27 22:56:00,54.1,50.6,29.76,East,90,0.0,0.0,88,0.00,,,0.08,WUHU21623XXSP,2013-05-28 02:56:00,
2013-05-27 23:01:00,54.1,50.6,29.75,East,90,0.0,0.0,88,0.00,,,0.08,WUHU21623XXSP,2013-05-28 03:01:00,
2013-05-27 23:06:00,54.1,50.6,29.75,NW,315,0.0,0.0,88,0.00,,,0.08,WUHU21623XXSP,2013-05-28 03:06:00,
2013-05-27 23:11:00,54.1,50.9,29.76,NE,45,0.0,0.0,89,0.00,,,0.08,WUHU21623XXSP,2013-05-28 03:11:00,
2013-05-27 23:16:00,54.1,50.9,29.76,NNW,337,0.0,0.0,89,0.00,,,0.08,WUHU21623XXSP,2013-05-28 03:16:00,
2013-05-27 23:21:00,54.1,50.9,29.76,WNW,292,0.0,0.0,89,0.00,,,0.08,WUHU21623XXSP,2013-05-28 03:21:00,
2013-05-27 23:26:00,54.1,50.9,29.76,NW,315,0.0,0.0,89,0.00,,,0.08,WUHU21623XXSP,2013-05-28 03:26:00,
2013-05-27 23:31:00,54.1,50.9,29.76,NW,315,0.0,0.0,89,0.00,,,0.08,WUHU21623XXSP,2013-05-28 03:31:00,
2013-05-27 23:36:00,54.1,50.9,29.76,WNW,292,0.0,0.0,89,0.00,,,0.08,WUHU21623XXSP,2013-05-28 03:36:00,
2013-05-27 23:41:00,54.3,51.1,29.76,WNW,292,0.0,0.0,89,0.00,,,0.08,WUHU21623XXSP,2013-05-28 03:41:00,
2013-05-27 23:46:00,54.3,51.1,29.76,WNW,292,0.0,0.0,89,0.00,,,0.08,WUHU21623XXSP,2013-05-28 03:46:00,
2013-05-27 23:51:00,54.3,51.1,29.76,West,270,0.0,0.0,89,0.00,,,0.08,WUHU21623XXSP,2013-05-28 03:51:00,
2013-05-27 23:56:00,54.3,51.1,29.76,West,270,0.0,0.0,89,0.00,,,0.08,WUHU21623XXSP,2013-05-28 03:56:00,